Westhampton, NY

6:33 PM EDT on July 30, 2016 (GMT -0400)
56 South Country Road | | Change Station

Elev 32 ft 40.83 °N, 72.63 °W | Updated 1 second ago

Mostly Cloudy
Mostly Cloudy
75.0 °F
Feels Like 74 °F
N
1.9
Wind Variable Wind from SE
Gusts 6.0 mph

Today
High -- | Low -- °F
--% Chance of Precip.
Yesterday
High -- | Low -- °F
Precip. -- in
Pressure 30.04 in
Visibility 10.0 miles
Clouds Scattered Clouds 1400 ft
Mostly Cloudy 2200 ft
Heat Index 74 °F
Dew Point 73 °F
Humidity 93%
Rainfall 0.27 in
Snow Depth Not available.
5:45 AM 8:07 PM
Waning Crescent, 10% visible
SPECI KFOK 302201Z 18005KT 10SM SCT014 BKN022 24/22 A3004 RMK AO2 T02440217
Pressure 30.04 in
Visibility 10.0 miles
Clouds Scattered Clouds 1400 ft
Mostly Cloudy 2200 ft
Heat Index 74 °F
Dew Point 73 °F
Humidity 93%
Rainfall 0.27 in
Snow Depth Not available.
5:45 AM 8:07 PM
Waning Crescent, 10% visible
SPECI KFOK 302201Z 18005KT 10SM SCT014 BKN022 24/22 A3004 RMK AO2 T02440217

10-Day Weather Forecast

Almanac

Astronomy

Jul. 30, 2016 Rise Set
Actual Time
Civil Twilight
Nautical Twilight
Astronomical Twilight
Moon
Length of Visible Light
Length of Day
Tomorrow will be .
, % of the Moon is Illuminated

Today's Extremes

State Highs State Lows

Community

WunderPhotos

Upload Photos

1,928,664 photos uploaded!

WunderBlog® & News

Nearby

Air Quality

  Air Quality AQ Index Pollutant
Not available.

Snow Depth

Station Depth Elevation

Earthquake Activity

City Distance Mag. Time & Date
Minimum magnitude displayed is 2.5.

Coastal Water Temperatures

Place Temperature

Stations

Nearby Weather Stations

Station Location Temp. Windchill Dew Point Humidity Wind Precip. Elev Updated Type
                   

Watches & Warnings

There are currently no watches in effect.